createdAt,value
2023-02-01T00:01:06.431Z,4.38
2023-02-01T00:03:39.527Z,4.30
2023-02-01T00:06:06.366Z,4.36
2023-02-01T00:08:39.499Z,4.27
2023-02-01T00:11:27.446Z,4.28
2023-02-01T00:14:00.389Z,4.30
2023-02-01T00:16:31.573Z,4.31
2023-02-01T00:19:23.494Z,4.29
2023-02-01T00:21:50.248Z,4.29
2023-02-01T00:24:23.534Z,4.28
2023-02-01T00:26:56.518Z,4.28
2023-02-01T00:29:23.266Z,4.29
2023-02-01T00:31:59.790Z,4.30
2023-02-01T00:34:26.663Z,4.27
2023-02-01T00:36:59.569Z,4.24
2023-02-01T00:39:26.289Z,4.30
2023-02-01T00:42:00.510Z,4.27
2023-02-01T00:44:28.247Z,4.31
2023-02-01T00:47:01.500Z,4.33
2023-02-01T00:49:29.547Z,4.32
2023-02-01T00:52:03.574Z,4.30
2023-02-01T00:54:30.589Z,4.30
2023-02-01T00:57:03.595Z,4.30
2023-02-01T00:59:36.507Z,4.29
2023-02-01T01:02:03.515Z,4.29
2023-02-01T01:04:36.513Z,4.34
2023-02-01T01:07:03.249Z,4.35
2023-02-01T01:09:36.551Z,4.32
2023-02-01T01:12:23.448Z,4.37
2023-02-01T01:14:56.481Z,4.33
2023-02-01T01:17:23.195Z,4.39
2023-02-01T01:19:58.950Z,4.38
2023-02-01T01:22:26.794Z,4.41
2023-02-01T01:25:00.495Z,4.50
2023-02-01T01:27:27.272Z,4.50
2023-02-01T01:30:00.671Z,4.52
2023-02-01T01:32:27.445Z,4.52
2023-02-01T01:34:54.125Z,4.54
2023-02-01T01:37:27.488Z,4.57
2023-02-01T01:39:56.200Z,4.55
2023-02-01T01:42:29.671Z,4.58
2023-02-01T01:45:02.286Z,4.57
2023-02-01T01:47:43.460Z,4.59
2023-02-01T01:50:13.652Z,4.61
2023-02-01T01:52:49.543Z,4.64
2023-02-01T01:55:19.559Z,4.63
2023-02-01T01:58:01.543Z,4.59
2023-02-01T02:00:32.022Z,4.62
2023-02-01T02:03:11.468Z,4.61
2023-02-01T02:05:45.462Z,4.64
2023-02-01T02:08:13.030Z,4.65
2023-02-01T02:11:04.516Z,4.65
2023-02-01T02:13:41.739Z,4.67
2023-02-01T02:16:23.520Z,4.66
2023-02-01T02:19:01.664Z,4.67
2023-02-01T02:22:04.441Z,4.69
2023-02-01T02:24:59.550Z,4.67
2023-02-01T02:27:54.480Z,4.65
2023-02-01T02:30:42.990Z,4.67
2023-02-01T02:33:40.516Z,4.66
2023-02-01T02:36:21.524Z,4.67
2023-02-01T02:39:01.460Z,4.71
2023-02-01T02:42:19.523Z,4.67
2023-02-01T02:45:26.788Z,4.68
2023-02-01T02:48:26.674Z,4.71
2023-02-01T02:51:24.490Z,4.71
2023-02-01T02:54:37.530Z,4.67
2023-02-01T02:57:27.713Z,4.68
2023-02-01T03:00:22.864Z,4.72
2023-02-01T03:03:09.343Z,4.74
2023-02-01T03:05:50.554Z,4.70
2023-02-01T03:08:27.511Z,4.71
2023-02-01T03:11:03.576Z,4.71
2023-02-01T03:14:05.527Z,4.75
2023-02-01T03:16:44.701Z,4.68
2023-02-01T03:19:22.405Z,4.70
2023-02-01T03:22:03.588Z,4.68
2023-02-01T03:24:50.598Z,4.73
2023-02-01T03:27:42.567Z,4.70
2023-02-01T03:30:11.992Z,4.71
2023-02-01T03:33:16.707Z,4.72
2023-02-01T03:36:14.127Z,4.75
2023-02-01T03:39:06.541Z,4.73
2023-02-01T03:41:53.680Z,4.78
2023-02-01T03:44:31.521Z,4.84
2023-02-01T03:47:33.513Z,4.87
2023-02-01T03:50:12.563Z,4.89
2023-02-01T03:52:44.905Z,4.90
2023-02-01T03:55:20.496Z,4.92
2023-02-01T03:57:54.192Z,5.00
2023-02-01T04:00:30.586Z,5.02
2023-02-01T04:02:57.429Z,5.07
2023-02-01T04:05:31.569Z,5.11
2023-02-01T04:07:58.824Z,5.19
2023-02-01T04:10:26.046Z,5.17
2023-02-01T04:12:59.532Z,5.23
2023-02-01T04:15:39.531Z,5.23
2023-02-01T04:18:12.559Z,5.21
2023-02-01T04:20:45.536Z,5.25
2023-02-01T04:23:18.545Z,5.35
2023-02-01T04:25:51.607Z,5.39
2023-02-01T04:28:24.508Z,5.43
2023-02-01T04:30:51.338Z,5.50
2023-02-01T04:33:24.525Z,5.57
2023-02-01T04:35:51.624Z,5.62
2023-02-01T04:38:24.616Z,5.56
2023-02-01T04:40:51.401Z,5.69
2023-02-01T04:43:25.618Z,5.74
2023-02-01T04:45:59.562Z,5.78
2023-02-01T04:48:32.641Z,5.80
2023-02-01T04:50:59.370Z,5.79
2023-02-01T04:53:32.574Z,5.79
2023-02-01T04:56:05.651Z,5.87
2023-02-01T04:58:32.422Z,5.95
2023-02-01T05:01:06.868Z,5.86
2023-02-01T05:03:34.876Z,5.84
2023-02-01T05:06:08.613Z,5.86
2023-02-01T05:08:37.790Z,5.82
2023-02-01T05:11:12.624Z,5.81
2023-02-01T05:13:52.049Z,5.86
2023-02-01T05:16:25.602Z,5.83
2023-02-01T05:18:58.563Z,5.87
2023-02-01T05:21:32.576Z,5.86
2023-02-01T05:24:17.634Z,5.79
2023-02-01T05:26:50.765Z,5.81
2023-02-01T05:29:18.884Z,5.88
2023-02-01T05:31:47.150Z,5.89
2023-02-01T05:34:20.604Z,5.88
2023-02-01T05:36:53.645Z,5.87
2023-02-01T05:39:26.593Z,5.91
2023-02-01T05:41:53.223Z,5.84
2023-02-01T05:44:26.649Z,5.87
2023-02-01T05:46:53.508Z,5.86
2023-02-01T05:49:26.642Z,5.84
2023-02-01T05:52:00.587Z,5.84
2023-02-01T05:54:27.479Z,5.84
2023-02-01T05:57:00.606Z,5.78
2023-02-01T05:59:33.549Z,5.84
2023-02-01T06:02:00.106Z,5.86
2023-02-01T06:04:33.581Z,5.84
2023-02-01T06:07:00.267Z,5.90
2023-02-01T06:09:33.721Z,5.96
2023-02-01T06:12:06.632Z,5.91
2023-02-01T06:14:46.606Z,5.94
2023-02-01T06:17:13.390Z,5.94
2023-02-01T06:19:48.586Z,5.92
2023-02-01T06:22:15.508Z,5.99
2023-02-01T06:24:48.901Z,5.98
2023-02-01T06:27:22.600Z,5.98
2023-02-01T06:29:55.677Z,6.04
2023-02-01T06:32:28.579Z,5.96
2023-02-01T06:34:56.428Z,5.97
2023-02-01T06:37:30.665Z,5.99
2023-02-01T06:40:03.657Z,5.98
2023-02-01T06:42:30.416Z,5.99
2023-02-01T06:45:03.777Z,6.01
2023-02-01T06:47:30.542Z,5.99
2023-02-01T06:50:03.669Z,5.99
2023-02-01T06:52:30.362Z,5.93
2023-02-01T06:55:03.680Z,5.97
2023-02-01T06:57:32.030Z,5.93
2023-02-01T07:00:05.726Z,5.96
2023-02-01T07:02:32.544Z,5.99
2023-02-01T07:05:05.676Z,6.00
2023-02-01T07:07:38.640Z,5.99
2023-02-01T07:10:05.819Z,5.98
2023-02-01T07:12:38.603Z,5.96
2023-02-01T07:15:13.116Z,5.93
2023-02-01T07:17:46.642Z,5.84
2023-02-01T07:20:13.584Z,5.81
2023-02-01T07:22:46.674Z,5.97
2023-02-01T07:25:13.834Z,6.04
2023-02-01T07:27:47.686Z,5.97
2023-02-01T07:30:14.263Z,6.04
2023-02-01T07:32:47.683Z,6.03
2023-02-01T07:35:21.825Z,6.01
2023-02-01T07:37:54.601Z,6.04
2023-02-01T07:40:32.548Z,6.06
2023-02-01T07:43:06.617Z,6.04
2023-02-01T07:45:39.870Z,6.07
2023-02-01T07:48:12.651Z,6.07
2023-02-01T07:50:45.613Z,6.10
2023-02-01T07:53:12.256Z,6.10
2023-02-01T07:55:46.715Z,6.10
2023-02-01T07:58:13.375Z,6.04
2023-02-01T08:01:04.635Z,6.05
2023-02-01T08:03:31.309Z,6.10
2023-02-01T08:06:04.615Z,6.09
2023-02-01T08:08:31.353Z,6.17
2023-02-01T08:11:09.635Z,6.18
2023-02-01T08:13:50.728Z,6.21
2023-02-01T08:16:19.623Z,6.25
2023-02-01T08:18:55.704Z,6.21
2023-02-01T08:21:37.717Z,6.26
2023-02-01T08:24:13.650Z,6.24
2023-02-01T08:26:40.324Z,6.26
2023-02-01T08:29:15.634Z,6.24
2023-02-01T08:31:49.809Z,6.22
2023-02-01T08:34:16.678Z,6.22
2023-02-01T08:36:49.629Z,6.18
2023-02-01T08:39:16.315Z,6.18
2023-02-01T08:42:09.751Z,6.22
2023-02-01T08:44:42.613Z,6.27
2023-02-01T08:47:15.620Z,6.27
2023-02-01T08:49:42.596Z,6.31
2023-02-01T08:52:16.472Z,6.33
2023-02-01T08:54:43.326Z,6.34
2023-02-01T08:57:17.673Z,6.32
2023-02-01T08:59:51.767Z,6.30
2023-02-01T09:02:25.934Z,6.32
2023-02-01T09:05:02.865Z,6.28
2023-02-01T09:07:36.936Z,6.34
2023-02-01T09:10:11.640Z,6.36
2023-02-01T09:12:44.833Z,6.36
2023-02-01T09:15:24.769Z,6.36
2023-02-01T09:17:51.462Z,6.39
2023-02-01T09:20:26.814Z,6.33
2023-02-01T09:22:55.726Z,6.40
2023-02-01T09:25:28.770Z,6.40
2023-02-01T09:27:55.627Z,6.39
2023-02-01T09:30:31.505Z,6.39
2023-02-01T09:33:04.692Z,6.47
2023-02-01T09:35:37.785Z,6.46
2023-02-01T09:38:10.670Z,6.46
2023-02-01T09:40:43.771Z,6.44
2023-02-01T09:43:37.748Z,6.50
2023-02-01T09:46:31.842Z,6.50
2023-02-01T09:49:03.354Z,6.51
2023-02-01T09:51:40.695Z,6.57
2023-02-01T09:54:21.668Z,6.59
2023-02-01T09:57:02.749Z,6.58
2023-02-01T09:59:52.720Z,6.62
2023-02-01T10:02:34.675Z,6.63
2023-02-01T10:05:02.725Z,6.63
2023-02-01T10:07:51.679Z,6.68
2023-02-01T10:10:36.711Z,6.73
2023-02-01T10:13:16.806Z,6.73
2023-02-01T10:16:26.907Z,6.77
2023-02-01T10:19:16.771Z,6.76
2023-02-01T10:22:04.727Z,6.71
2023-02-01T10:25:09.798Z,6.69
2023-02-01T10:27:45.709Z,6.67
2023-02-01T10:30:32.787Z,6.63
2023-02-01T10:33:30.659Z,6.50
2023-02-01T10:36:26.881Z,6.31
2023-02-01T10:38:53.757Z,6.10
2023-02-01T10:41:32.753Z,5.90
2023-02-01T10:44:01.672Z,5.69
2023-02-01T10:46:28.717Z,5.66
2023-02-01T10:49:04.780Z,5.64
2023-02-01T10:51:47.268Z,5.61
2023-02-01T10:54:30.085Z,5.59
2023-02-01T10:57:03.878Z,5.53
2023-02-01T10:59:33.611Z,5.51
2023-02-01T11:02:03.758Z,5.53
2023-02-01T11:04:43.781Z,5.50
2023-02-01T11:07:27.094Z,5.47
2023-02-01T11:10:02.786Z,5.39
2023-02-01T11:12:39.743Z,5.38
2023-02-01T11:15:27.237Z,5.38
2023-02-01T11:18:03.728Z,5.33
2023-02-01T11:20:39.825Z,5.34
2023-02-01T11:23:06.939Z,5.29
2023-02-01T11:25:43.786Z,5.29
2023-02-01T11:28:17.820Z,5.25
2023-02-01T11:30:54.732Z,5.25
2023-02-01T11:33:27.485Z,5.28
2023-02-01T11:36:00.752Z,5.22
2023-02-01T11:38:33.990Z,5.23
2023-02-01T11:41:30.931Z,5.31
2023-02-01T11:44:06.756Z,5.34
2023-02-01T11:46:43.052Z,5.34
2023-02-01T11:49:28.943Z,5.40
2023-02-01T11:52:12.741Z,5.42
2023-02-01T11:54:54.816Z,5.45
2023-02-01T11:58:04.801Z,5.52
2023-02-01T12:00:43.798Z,5.57
2023-02-01T12:03:37.855Z,5.62
2023-02-01T12:06:20.818Z,5.64
2023-02-01T12:09:18.805Z,5.65
2023-02-01T12:12:30.749Z,5.68
2023-02-01T12:15:54.677Z,5.69
2023-02-01T12:18:55.523Z,5.70
2023-02-01T12:21:34.824Z,5.71
2023-02-01T12:24:16.761Z,5.72
2023-02-01T12:27:14.830Z,5.78
2023-02-01T12:30:18.731Z,5.85
2023-02-01T12:33:04.041Z,5.89
2023-02-01T12:35:56.116Z,5.98
2023-02-01T12:38:41.523Z,6.03
2023-02-01T12:41:36.841Z,6.08
2023-02-01T12:44:31.814Z,6.10
2023-02-01T12:47:24.895Z,6.09
2023-02-01T12:50:22.804Z,6.16
2023-02-01T12:52:58.803Z,6.18
2023-02-01T12:55:51.761Z,6.19
2023-02-01T12:58:34.809Z,6.23
2023-02-01T13:01:10.020Z,6.28
2023-02-01T13:04:03.809Z,6.30
2023-02-01T13:06:41.706Z,6.35
2023-02-01T13:09:30.850Z,6.39
2023-02-01T13:12:14.804Z,6.37
2023-02-01T13:15:00.911Z,6.34
2023-02-01T13:17:33.303Z,6.31
2023-02-01T13:20:26.198Z,6.34
2023-02-01T13:23:05.782Z,6.37
2023-02-01T13:26:07.741Z,6.46
2023-02-01T13:28:59.296Z,6.54
2023-02-01T13:31:57.764Z,6.63
2023-02-01T13:34:54.092Z,6.72
2023-02-01T13:38:04.826Z,6.75
2023-02-01T13:40:46.004Z,6.70
2023-02-01T13:43:29.806Z,6.70
2023-02-01T13:46:08.742Z,6.64
2023-02-01T13:48:56.747Z,6.55
2023-02-01T13:51:42.015Z,6.48
2023-02-01T13:54:49.745Z,6.40
2023-02-01T13:57:45.802Z,6.44
2023-02-01T14:00:37.790Z,6.47
2023-02-01T14:03:13.797Z,6.68
2023-02-01T14:05:41.035Z,6.69
2023-02-01T14:08:07.775Z,6.69
2023-02-01T14:10:54.755Z,6.67
2023-02-01T14:13:57.784Z,6.56
2023-02-01T14:16:25.993Z,6.47
2023-02-01T14:19:07.948Z,6.44
2023-02-01T14:21:49.767Z,6.41
2023-02-01T14:24:31.813Z,6.36
2023-02-01T14:27:26.651Z,6.34
2023-02-01T14:30:05.856Z,6.30
2023-02-01T14:32:39.502Z,6.31
2023-02-01T14:35:28.966Z,6.27
2023-02-01T14:38:09.869Z,6.25
2023-02-01T14:40:37.010Z,6.16
2023-02-01T14:43:31.943Z,6.13
2023-02-01T14:45:59.958Z,6.10
2023-02-01T14:48:32.833Z,6.08
2023-02-01T14:51:00.920Z,6.09
2023-02-01T14:53:41.797Z,6.15
2023-02-01T14:56:24.999Z,6.24
2023-02-01T14:59:05.394Z,6.35
2023-02-01T15:01:41.882Z,6.39
2023-02-01T15:04:25.866Z,6.47
2023-02-01T15:06:57.844Z,6.49
2023-02-01T15:09:43.830Z,6.48
2023-02-01T15:12:19.903Z,6.47
2023-02-01T15:15:22.208Z,6.44
2023-02-01T15:17:54.379Z,6.38
2023-02-01T15:20:31.790Z,6.29
2023-02-01T15:23:02.469Z,6.22
2023-02-01T15:25:45.891Z,6.15
2023-02-01T15:28:15.516Z,6.20
2023-02-01T15:31:14.279Z,6.25
2023-02-01T15:34:03.827Z,6.24
2023-02-01T15:36:41.208Z,6.34
2023-02-01T15:39:19.620Z,6.39
2023-02-01T15:41:57.873Z,6.44
2023-02-01T15:44:43.220Z,6.39
2023-02-01T15:47:38.791Z,6.41
2023-02-01T15:50:06.196Z,6.43
2023-02-01T15:52:48.848Z,6.43
2023-02-01T15:55:25.811Z,6.41
2023-02-01T15:57:59.892Z,6.39
2023-02-01T16:00:31.546Z,6.43
2023-02-01T16:03:10.926Z,6.44
2023-02-01T16:05:50.857Z,6.47
2023-02-01T16:08:32.837Z,6.46
2023-02-01T16:11:08.368Z,6.47
2023-02-01T16:13:48.822Z,6.45
2023-02-01T16:16:29.073Z,6.47
2023-02-01T16:18:55.931Z,6.47
2023-02-01T16:21:29.800Z,6.48
2023-02-01T16:23:56.471Z,6.48
2023-02-01T16:26:29.827Z,6.48
2023-02-01T16:28:56.503Z,6.45
2023-02-01T16:31:34.912Z,6.41
2023-02-01T16:34:01.870Z,6.42
2023-02-01T16:36:35.897Z,11.88
2023-02-01T16:39:03.962Z,17.10
2023-02-01T16:41:30.936Z,20.07
2023-02-01T16:44:04.824Z,21.54
2023-02-01T16:46:42.900Z,21.23
2023-02-01T16:49:27.892Z,19.31
2023-02-01T16:52:05.879Z,19.16
2023-02-01T16:54:38.857Z,19.68
2023-02-01T16:57:12.867Z,20.70
2023-02-01T16:59:55.914Z,19.25
2023-02-01T17:02:35.852Z,19.02
2023-02-01T17:05:08.904Z,18.70
2023-02-01T17:07:39.377Z,18.53
2023-02-01T17:10:21.351Z,18.12
2023-02-01T17:12:54.993Z,18.14
2023-02-01T17:15:41.868Z,18.71
2023-02-01T17:18:15.505Z,20.13
2023-02-01T17:20:49.125Z,20.73
2023-02-01T17:23:16.926Z,19.55
2023-02-01T17:25:50.078Z,19.74
2023-02-01T17:28:16.722Z,20.15
2023-02-01T17:30:49.900Z,19.92
2023-02-01T17:33:24.931Z,19.79
2023-02-01T17:36:00.880Z,19.71
2023-02-01T17:38:27.984Z,19.50
2023-02-01T17:41:00.895Z,19.36
2023-02-01T17:43:27.616Z,19.84
2023-02-01T17:46:21.988Z,20.39
2023-02-01T17:48:48.747Z,20.61
2023-02-01T17:51:20.555Z,20.31
2023-02-01T17:53:53.839Z,20.20
2023-02-01T17:56:29.835Z,20.88
2023-02-01T17:58:56.681Z,20.12
2023-02-01T18:01:31.969Z,20.03
2023-02-01T18:03:58.673Z,20.02
2023-02-01T18:06:33.922Z,19.34
2023-02-01T18:09:07.001Z,20.02
2023-02-01T18:11:33.811Z,19.98
2023-02-01T18:14:06.949Z,18.51
2023-02-01T18:16:48.047Z,16.98
2023-02-01T18:19:14.680Z,16.55
2023-02-01T18:21:49.919Z,16.25
2023-02-01T18:24:23.928Z,16.78
2023-02-01T18:26:58.841Z,17.57
2023-02-01T18:29:25.642Z,17.88
2023-02-01T18:31:59.040Z,16.88
2023-02-01T18:34:27.341Z,17.13
2023-02-01T18:36:54.008Z,17.50
2023-02-01T18:39:26.933Z,18.25
2023-02-01T18:41:59.941Z,18.52
2023-02-01T18:44:26.676Z,17.53
2023-02-01T18:46:59.945Z,17.85
2023-02-01T18:49:26.609Z,17.59
2023-02-01T18:51:59.891Z,18.52
2023-02-01T18:54:26.529Z,19.64
2023-02-01T18:56:53.206Z,18.96
2023-02-01T18:59:26.913Z,19.01
2023-02-01T19:01:53.588Z,20.11
2023-02-01T19:04:27.172Z,20.10
2023-02-01T19:06:54.070Z,20.08
2023-02-01T19:09:27.004Z,19.85
2023-02-01T19:11:53.595Z,19.59
2023-02-01T19:14:32.856Z,19.50
2023-02-01T19:17:05.937Z,18.73
2023-02-01T19:19:41.034Z,18.37
2023-02-01T19:22:08.615Z,19.61
2023-02-01T19:24:41.939Z,19.62
2023-02-01T19:27:15.919Z,20.00
2023-02-01T19:29:46.076Z,19.00
2023-02-01T19:32:13.939Z,18.93
2023-02-01T19:34:47.923Z,18.12
2023-02-01T19:37:20.909Z,19.08
2023-02-01T19:39:47.675Z,20.66
2023-02-01T19:42:20.897Z,21.00
2023-02-01T19:44:47.680Z,20.35
2023-02-01T19:47:20.933Z,21.05
2023-02-01T19:49:47.569Z,20.51
2023-02-01T19:52:20.956Z,20.20
2023-02-01T19:54:47.557Z,22.25
2023-02-01T19:57:21.083Z,22.65
2023-02-01T19:59:53.945Z,21.77
2023-02-01T20:02:19.656Z,22.26
2023-02-01T20:04:53.053Z,22.19
2023-02-01T20:07:19.689Z,21.17
2023-02-01T20:09:53.067Z,20.73
2023-02-01T20:12:19.813Z,21.06
2023-02-01T20:14:53.106Z,21.50
2023-02-01T20:17:19.772Z,20.89
2023-02-01T20:19:53.149Z,20.45
2023-02-01T20:22:19.783Z,20.88
2023-02-01T20:24:46.422Z,21.53
2023-02-01T20:27:20.026Z,20.55
2023-02-01T20:29:52.974Z,19.71
2023-02-01T20:32:20.180Z,19.15
2023-02-01T20:34:52.953Z,19.56
2023-02-01T20:37:26.967Z,18.81
2023-02-01T20:39:53.747Z,19.03
2023-02-01T20:42:26.972Z,19.64
2023-02-01T20:44:53.680Z,19.65
2023-02-01T20:47:26.979Z,19.49
2023-02-01T20:49:53.620Z,19.58
2023-02-01T20:52:27.037Z,20.33
2023-02-01T20:54:53.662Z,20.46
2023-02-01T20:57:20.522Z,20.28
2023-02-01T20:59:56.000Z,20.12
2023-02-01T21:02:22.831Z,20.84
2023-02-01T21:04:55.996Z,21.43
2023-02-01T21:07:22.651Z,21.67
2023-02-01T21:09:55.945Z,21.72
2023-02-01T21:12:22.771Z,21.21
2023-02-01T21:15:03.012Z,20.91
2023-02-01T21:17:31.279Z,20.62
2023-02-01T21:20:05.082Z,20.70
2023-02-01T21:22:31.684Z,21.28
2023-02-01T21:25:05.010Z,22.09
2023-02-01T21:27:31.589Z,22.19
2023-02-01T21:30:06.384Z,21.27
2023-02-01T21:32:41.147Z,20.23
2023-02-01T21:35:15.009Z,21.39
2023-02-01T21:37:41.612Z,22.71
2023-02-01T21:40:16.083Z,22.49
2023-02-01T21:42:45.653Z,23.42
2023-02-01T21:45:23.301Z,24.03
2023-02-01T21:47:56.989Z,22.72
2023-02-01T21:50:23.614Z,22.03
2023-02-01T21:52:58.035Z,22.16
2023-02-01T21:55:24.981Z,21.54
2023-02-01T21:57:58.063Z,21.51
2023-02-01T22:00:24.789Z,22.04
2023-02-01T22:02:58.086Z,21.83
2023-02-01T22:05:26.309Z,22.13
2023-02-01T22:07:59.999Z,21.10
2023-02-01T22:10:26.714Z,21.89
2023-02-01T22:12:53.469Z,22.62
2023-02-01T22:15:27.155Z,21.52
2023-02-01T22:18:00.457Z,22.70
2023-02-01T22:20:35.334Z,21.77
2023-02-01T22:23:02.117Z,21.58
2023-02-01T22:25:36.068Z,21.82
2023-02-01T22:28:31.227Z,22.18
2023-02-01T22:30:56.222Z,20.45
2023-02-01T22:33:23.031Z,19.99
2023-02-01T22:35:57.001Z,20.64
2023-02-01T22:38:23.645Z,20.61
2023-02-01T22:41:07.041Z,21.00
2023-02-01T22:43:34.408Z,21.22
2023-02-01T22:46:02.668Z,22.59
2023-02-01T22:48:37.074Z,22.43
2023-02-01T22:51:12.092Z,21.45
2023-02-01T22:53:38.725Z,20.98
2023-02-01T22:56:14.007Z,20.51
2023-02-01T22:58:48.265Z,22.50
2023-02-01T23:01:18.149Z,17.65
2023-02-01T23:03:51.019Z,12.26
2023-02-01T23:06:25.084Z,9.17
2023-02-01T23:08:55.562Z,7.84
2023-02-01T23:11:29.069Z,7.09
2023-02-01T23:14:10.013Z,6.66
2023-02-01T23:16:36.940Z,6.40
2023-02-01T23:19:04.300Z,6.17
2023-02-01T23:21:38.063Z,6.02
2023-02-01T23:24:14.134Z,5.90
2023-02-01T23:26:42.603Z,5.82
2023-02-01T23:29:22.057Z,5.72
2023-02-01T23:31:48.805Z,5.74
2023-02-01T23:34:22.041Z,5.60
2023-02-01T23:36:48.701Z,5.63
2023-02-01T23:39:22.085Z,5.47
2023-02-01T23:41:54.981Z,5.48
2023-02-01T23:44:21.605Z,5.51
2023-02-01T23:46:55.010Z,5.47
2023-02-01T23:49:28.040Z,5.42
2023-02-01T23:52:00.983Z,5.43
2023-02-01T23:54:27.533Z,5.31
2023-02-01T23:56:56.192Z,5.25
2023-02-01T23:59:33.227Z,5.30
